Nichioh Maru — JD3267 — position and weather

sailwx.info

Track history (hours):
 
Tides and Currents Weather Stations Pressure Air Temp Water Temp Dewpoint Dewpoint Depression Visibility Wind Speed Wind Dir Waves Ship Positions

Nichioh Maru

Last reported at 2014-Nov-01 02:33 UTC. Time now 2014-Nov-01 03:24 UTC.
Position N 35°19' E 139°43'.

Length 170 m; draft 6.5 m.

Type: Cargo ship. MMSI: 431003232.

Date/timePositionNaut miles runAvg speedWind from/ knotsBaromVisibWave heightAir tempDewpointWater temp
2014-Nov-01 02:33N 35°19' E 139°43'3 3.0
2014-Nov-01 01:33N 35°19' E 139°39'0 0.0
2014-Nov-01 00:30N 35°19' E 139°39'0 0.0
2014-Oct-31 23:33N 35°19' E 139°39'4 3.7
2014-Oct-31 22:33N 35°18' E 139°43'1111.0
2014-Oct-31 21:33N 35°07' E 139°45'24615.3
2014-Oct-31 05:31N 33°58' E 134°59'1818.2
2014-Oct-31 04:33N 34°16' E 134°59'1717.1
2014-Oct-31 03:33N 34°29' E 135°11'1111.5
2014-Oct-31 02:33N 34°41' E 135°13'0 0.0
2014-Oct-31 01:28N 34°41' E 135°13'0 0.0
2014-Oct-31 00:16N 34°41' E 135°13'0 0.0
2014-Oct-30 23:28N 34°41' E 135°13'1 0.9
2014-Oct-30 22:33N 34°40' E 135°15'4 3.4
2014-Oct-30 21:20N 34°36' E 135°16'0 0.0
2014-Oct-30 20:23N 34°36' E 135°16'0 0.0
2014-Oct-30 19:29N 34°36' E 135°16'0 0.0
2014-Oct-30 18:29N 34°36' E 135°16'0 0.0
2014-Oct-30 17:29N 34°36' E 135°16'0 0.0
2014-Oct-30 16:32N 34°36' E 135°16'0 0.0
2014-Oct-30 15:29N 34°36' E 135°16'0 0.0
2014-Oct-30 14:29N 34°36' E 135°16'0 0.0
2014-Oct-30 13:29N 34°36' E 135°16'0 0.0
2014-Oct-30 12:11N 34°36' E 135°16'0 0.0
2014-Oct-30 11:26N 34°36' E 135°16'0 0.4
2014-Oct-30 10:33N 34°36' E 135°15'1717.1
2014-Oct-30 09:34N 34°35' E 134°55'111 6.8
2014-Oct-29 17:13N 34°02' E 132°47'20 1.3
2014-Oct-29 01:33N 34°06' E 132°23'1514.9
2014-Oct-29 00:33N 34°21' E 132°22'0 0.0
2014-Oct-28 23:31N 34°21' E 132°22'0 0.0
2014-Oct-28 22:31N 34°21' E 132°22'0 0.0
2014-Oct-28 21:31N 34°21' E 132°22'1 1.1
2014-Oct-28 20:33N 34°20' E 132°22'0 0.1
2014-Oct-28 19:31N 34°20' E 132°22'0 0.0
2014-Oct-28 18:31N 34°20' E 132°22'0 0.0
2014-Oct-28 17:31N 34°20' E 132°22'0 0.0
2014-Oct-28 16:31N 34°20' E 132°22'0 0.0
2014-Oct-28 15:31N 34°20' E 132°22'0 0.0
2014-Oct-28 14:31N 34°20' E 132°22'0 0.0
2014-Oct-28 13:31N 34°20' E 132°22'0 0.0
2014-Oct-28 12:31N 34°20' E 132°22'6 5.9
2014-Oct-28 11:34N 34°14' E 132°21'1717.0
2014-Oct-28 10:33N 34°04' E 132°37'119 3.8
2014-Oct-27 03:33N 34°37' E 134°56'1414.4
2014-Oct-27 02:33N 34°37' E 135°13'4 3.6
2014-Oct-27 01:28N 34°41' E 135°13'0 0.0
2014-Oct-27 00:28N 34°41' E 135°13'0 0.0
2014-Oct-26 23:28N 34°41' E 135°13'2 2.0
2014-Oct-26 22:33N 34°40' E 135°15'1312.6
2014-Oct-26 21:33N 34°28' E 135°09'1615.7
2014-Oct-26 20:33N 34°15' E 134°59'1817.7
2014-Oct-26 19:33N 33°57' E 135°00'233 7.9
2014-Oct-25 14:07N 35°01' E 139°32'1018.0
2014-Oct-25 13:33N 35°06' E 139°43'1313.2
2014-Oct-25 12:33N 35°20' E 139°43'1111.1
2014-Oct-25 11:33N 35°30' E 139°46'0 0.1
2014-Oct-25 10:30N 35°30' E 139°46'0 0.0
2014-Oct-25 09:30N 35°30' E 139°46'0 0.0
2014-Oct-25 08:27N 35°30' E 139°46'0 0.0
2014-Oct-25 07:18N 35°30' E 139°46'0 0.0
2014-Oct-25 06:30N 35°30' E 139°46'0 0.0
2014-Oct-25 05:24N 35°30' E 139°46'0 0.0
2014-Oct-25 04:33N 35°30' E 139°46'4 4.1
2014-Oct-25 03:33N 35°27' E 139°43'9 8.8
2014-Oct-25 02:33N 35°19' E 139°40'1 0.7
2014-Oct-25 01:33N 35°19' E 139°39'0 0.0
2014-Oct-25 00:33N 35°19' E 139°39'0 0.0
2014-Oct-24 23:33N 35°19' E 139°39'6 5.6
2014-Oct-24 22:33N 35°17' E 139°45'1110.9
2014-Oct-24 21:33N 35°06' E 139°45'23813.8
2014-Oct-24 04:24N 34°22' E 135°01'1619.4
2014-Oct-24 03:33N 34°34' E 135°14'7 6.8
2014-Oct-24 02:33N 34°41' E 135°13'0 0.0
2014-Oct-24 01:34N 34°41' E 135°13'0 0.0
2014-Oct-24 00:34N 34°41' E 135°13'0 0.0
2014-Oct-23 23:33N 34°41' E 135°13'1 1.3
2014-Oct-23 22:33N 34°40' E 135°15'4 3.9
2014-Oct-23 21:33N 34°36' E 135°16'0 0.0
2014-Oct-23 20:33N 34°36' E 135°16'0 0.0
2014-Oct-23 19:21N 34°36' E 135°16'0 0.0
2014-Oct-23 18:30N 34°36' E 135°16'0 0.0
2014-Oct-23 17:27N 34°36' E 135°16'0 0.0
2014-Oct-23 16:30N 34°36' E 135°16'0 0.0
2014-Oct-23 15:30N 34°36' E 135°16'0 0.0
2014-Oct-23 14:30N 34°36' E 135°16'0 0.0
2014-Oct-23 13:30N 34°36' E 135°16'0 0.0
2014-Oct-23 12:30N 34°36' E 135°16'0 0.0
2014-Oct-23 11:18N 34°36' E 135°16'0 0.0
2014-Oct-23 10:30N 34°36' E 135°16'0 0.0
2014-Oct-23 09:30N 34°36' E 135°16'0 0.0
2014-Oct-23 08:30N 34°36' E 135°16'0 0.1
2014-Oct-23 07:30N 34°36' E 135°16'1111.6
2014-Oct-23 06:33N 34°36' E 135°02'  
Track history (hours):
 
Tides and Currents Weather Stations Pressure Air Temp Water Temp Dewpoint Dewpoint Depression Visibility Wind Speed Wind Dir Waves Ship Positions

Nichioh Maru

Last reported at 2014-Nov-01 02:33 UTC. Time now 2014-Nov-01 03:24 UTC.
Position N 35°19' E 139°43'.

Length 170 m; draft 6.5 m.

Type: Cargo ship. MMSI: 431003232.

Date/timePositionNaut miles runAvg speedWind from/ knotsBaromVisibWave heightAir tempDewpointWater temp
2014-Nov-01 02:33N 35°19' E 139°43'3 3.0
2014-Nov-01 01:33N 35°19' E 139°39'0 0.0
2014-Nov-01 00:30N 35°19' E 139°39'0 0.0
2014-Oct-31 23:33N 35°19' E 139°39'4 3.7
2014-Oct-31 22:33N 35°18' E 139°43'1111.0
2014-Oct-31 21:33N 35°07' E 139°45'24615.3
2014-Oct-31 05:31N 33°58' E 134°59'1818.2
2014-Oct-31 04:33N 34°16' E 134°59'1717.1
2014-Oct-31 03:33N 34°29' E 135°11'1111.5
2014-Oct-31 02:33N 34°41' E 135°13'0 0.0
2014-Oct-31 01:28N 34°41' E 135°13'0 0.0
2014-Oct-31 00:16N 34°41' E 135°13'0 0.0
2014-Oct-30 23:28N 34°41' E 135°13'1 0.9
2014-Oct-30 22:33N 34°40' E 135°15'4 3.4
2014-Oct-30 21:20N 34°36' E 135°16'0 0.0
2014-Oct-30 20:23N 34°36' E 135°16'0 0.0
2014-Oct-30 19:29N 34°36' E 135°16'0 0.0
2014-Oct-30 18:29N 34°36' E 135°16'0 0.0
2014-Oct-30 17:29N 34°36' E 135°16'0 0.0
2014-Oct-30 16:32N 34°36' E 135°16'0 0.0
2014-Oct-30 15:29N 34°36' E 135°16'0 0.0
2014-Oct-30 14:29N 34°36' E 135°16'0 0.0
2014-Oct-30 13:29N 34°36' E 135°16'0 0.0
2014-Oct-30 12:11N 34°36' E 135°16'0 0.0
2014-Oct-30 11:26N 34°36' E 135°16'0 0.4
2014-Oct-30 10:33N 34°36' E 135°15'1717.1
2014-Oct-30 09:34N 34°35' E 134°55'111 6.8
2014-Oct-29 17:13N 34°02' E 132°47'20 1.3
2014-Oct-29 01:33N 34°06' E 132°23'1514.9
2014-Oct-29 00:33N 34°21' E 132°22'0 0.0
2014-Oct-28 23:31N 34°21' E 132°22'0 0.0
2014-Oct-28 22:31N 34°21' E 132°22'0 0.0
2014-Oct-28 21:31N 34°21' E 132°22'1 1.1
2014-Oct-28 20:33N 34°20' E 132°22'0 0.1
2014-Oct-28 19:31N 34°20' E 132°22'0 0.0
2014-Oct-28 18:31N 34°20' E 132°22'0 0.0
2014-Oct-28 17:31N 34°20' E 132°22'0 0.0
2014-Oct-28 16:31N 34°20' E 132°22'0 0.0
2014-Oct-28 15:31N 34°20' E 132°22'0 0.0
2014-Oct-28 14:31N 34°20' E 132°22'0 0.0
2014-Oct-28 13:31N 34°20' E 132°22'0 0.0
2014-Oct-28 12:31N 34°20' E 132°22'6 5.9
2014-Oct-28 11:34N 34°14' E 132°21'1717.0
2014-Oct-28 10:33N 34°04' E 132°37'119 3.8
2014-Oct-27 03:33N 34°37' E 134°56'1414.4
2014-Oct-27 02:33N 34°37' E 135°13'4 3.6
2014-Oct-27 01:28N 34°41' E 135°13'0 0.0
2014-Oct-27 00:28N 34°41' E 135°13'0 0.0
2014-Oct-26 23:28N 34°41' E 135°13'2 2.0
2014-Oct-26 22:33N 34°40' E 135°15'1312.6
2014-Oct-26 21:33N 34°28' E 135°09'1615.7
2014-Oct-26 20:33N 34°15' E 134°59'1817.7
2014-Oct-26 19:33N 33°57' E 135°00'233 7.9
2014-Oct-25 14:07N 35°01' E 139°32'1018.0
2014-Oct-25 13:33N 35°06' E 139°43'1313.2
2014-Oct-25 12:33N 35°20' E 139°43'1111.1
2014-Oct-25 11:33N 35°30' E 139°46'0 0.1
2014-Oct-25 10:30N 35°30' E 139°46'0 0.0
2014-Oct-25 09:30N 35°30' E 139°46'0 0.0
2014-Oct-25 08:27N 35°30' E 139°46'0 0.0
2014-Oct-25 07:18N 35°30' E 139°46'0 0.0
2014-Oct-25 06:30N 35°30' E 139°46'0 0.0
2014-Oct-25 05:24N 35°30' E 139°46'0 0.0
2014-Oct-25 04:33N 35°30' E 139°46'4 4.1
2014-Oct-25 03:33N 35°27' E 139°43'9 8.8
2014-Oct-25 02:33N 35°19' E 139°40'1 0.7
2014-Oct-25 01:33N 35°19' E 139°39'0 0.0
2014-Oct-25 00:33N 35°19' E 139°39'0 0.0
2014-Oct-24 23:33N 35°19' E 139°39'6 5.6
2014-Oct-24 22:33N 35°17' E 139°45'1110.9
2014-Oct-24 21:33N 35°06' E 139°45'23813.8
2014-Oct-24 04:24N 34°22' E 135°01'1619.4
2014-Oct-24 03:33N 34°34' E 135°14'7 6.8
2014-Oct-24 02:33N 34°41' E 135°13'0 0.0
2014-Oct-24 01:34N 34°41' E 135°13'0 0.0
2014-Oct-24 00:34N 34°41' E 135°13'0 0.0
2014-Oct-23 23:33N 34°41' E 135°13'1 1.3
2014-Oct-23 22:33N 34°40' E 135°15'4 3.9
2014-Oct-23 21:33N 34°36' E 135°16'0 0.0
2014-Oct-23 20:33N 34°36' E 135°16'0 0.0
2014-Oct-23 19:21N 34°36' E 135°16'0 0.0
2014-Oct-23 18:30N 34°36' E 135°16'0 0.0
2014-Oct-23 17:27N 34°36' E 135°16'0 0.0
2014-Oct-23 16:30N 34°36' E 135°16'0 0.0
2014-Oct-23 15:30N 34°36' E 135°16'0 0.0
2014-Oct-23 14:30N 34°36' E 135°16'0 0.0
2014-Oct-23 13:30N 34°36' E 135°16'0 0.0
2014-Oct-23 12:30N 34°36' E 135°16'0 0.0
2014-Oct-23 11:18N 34°36' E 135°16'0 0.0
2014-Oct-23 10:30N 34°36' E 135°16'0 0.0
2014-Oct-23 09:30N 34°36' E 135°16'0 0.0
2014-Oct-23 08:30N 34°36' E 135°16'0 0.1
2014-Oct-23 07:30N 34°36' E 135°16'1111.6
2014-Oct-23 06:33N 34°36' E 135°02'  

Dump ship's entire track history